KCBE

Greater Cumberland Regional Airport

Cumberland, West Virginia, USA
METAR KCBE 200057Z AUTO 20007KT 10SM CLR 05/M06 A3008 RMK AO1
Observed Flight Rules
Jan-20 @ 00:57 UTC (23 minutes ago) Visual Flight Rules
Wind Visibility Clouds
200° at 7 knots 10 miles
  • Clear skies
Temperatures Readings
Current 5°C / 41°F
Dewpoint -6°C / 21°F
Humidity 45%
Altimeter 30.08" Hg
Pressure 1019 hPa
Elevation 236
METAR KCBE 200057Z AUTO 20007KT 10SM CLR 05/M06 A3008 RMK AO1
Observed Flight Rules
Jan-20 @ 00:57 UTC
(23 minutes ago)
VFR
Wind Visibility
200° at 7 knots 10 miles
Clouds
  • Clear skies
Temperature Dewpoint
5°C / 41°F -6°C / 21°F
Humidity Altimeter Pressure
45% 30.08" Hg 1019 hPa